Zamyn-Uud, Mongolia
Current Conditions -  °F | °C
As of 6:00 AM on Sunday 26 Oct 2014 (Local Time) from ZBHH Reporting Station
Clear Clear  
Wind Chill: 34°   Ceiling: Unl
Heat Index: 41°   Visibility: 6mi
Dew Point: 23°   Wind: 11mph
Humidity: 49%   Direction: 90°E
Pressure: 30.27"   Gusts: NA
Location:  43.73°N, 111.9°E
Report Text: ZBHH 252200Z 09005MPS CAVOK 05/M05 Q1025 NOSIG
Loading
Personal Weather Stations






























Interactive Weather Map
Tropical Storm Tracking
New forecast layout! Learn more

10-Day Weather Forecast

Advertisements
Track Severe Weather on mobile